| Ora | Descriere | Temp | Se simte | Precipitatii | Umiditate | Vant |
|---|---|---|---|---|---|---|
| 00:00 | Senin | 14.5° | 13.9° | 0% | 60% | SSE 10.8 KM/H |
| 01:00 | Senin | 14.1° | 13.4° | 0% | 60% | SSE 11.2 KM/H |
| 02:00 | Senin | 13.2° | 12.2° | 0% | 63% | SSW 12.6 KM/H |
| 03:00 | Senin | 12.2° | 11.1° | 0% | 67% | S 11.5 KM/H |
| 04:00 | Senin | 11.4° | 10.1° | 0% | 70% | S 11.5 KM/H |
| 05:00 | Senin | 10.8° | 9.5° | 0% | 74% | S 10.8 KM/H |
| 06:00 | Senin | 10.4° | 9.1° | 0% | 77% | S 10.4 KM/H |
| 07:00 | Senin | 11° | 9.8° | 0% | 78% | S 10.8 KM/H |
| 08:00 | Senin | 13.5° | 12.7° | 0% | 72% | S 11.5 KM/H |
| 09:00 | Innorat | 15.7° | 15.8° | 0% | 65% | S 14.4 KM/H |
| 10:00 | Acoperit de nori | 17.6° | 17.6° | 0% | 60% | S 16.9 KM/H |
| 11:00 | Acoperit de nori | 19.3° | 19.3° | 0% | 55% | SSW 18 KM/H |
| 12:00 | Innorat | 20.3° | 20.3° | 0% | 53% | SSW 17.6 KM/H |
| 13:00 | Innorat | 21.6° | 21.6° | 0% | 50% | SW 17.3 KM/H |
| 14:00 | Senin | 22.7° | 24.6° | 0% | 48% | SW 18.4 KM/H |
| 15:00 | 23° | 24.6° | 0% | 46% | SW 19.8 KM/H | |
| 16:00 | 23.3° | 24.7° | 0% | 45% | SW 18.7 KM/H | |
| 17:00 | 23.2° | 24.7° | 0% | 45% | SW 17.6 KM/H | |
| 18:00 | 22.4° | 24.5° | 0% | 50% | WSW 14.4 KM/H | |
| 19:00 | 21.7° | 21.7° | 0% | 56% | WSW 7.9 KM/H | |
| 20:00 | Senin | 19.5° | 19.5° | 0% | 62% | SSW 4.3 KM/H |
| 21:00 | Senin | 17.5° | 17.5° | 0% | 63% | SSE 7.2 KM/H |
| 22:00 | 16.7° | 16.7° | 0% | 65% | SE 9.7 KM/H | |
| 23:00 | 16° | 16° | 0% | 68% | SE 10.8 KM/H |